This is the latest recevied weather packets stored in our database for station/object K8CWG. If no packets are shown the sender has not sent any weather packets the latest 10 day(s).
| Time | Temp. | Humidity | Pressure | Rain* | Wind** | Luminosity | Snow |
|---|---|---|---|---|---|---|---|
| 1777806003 | 1.67° C | 86% | 1018.5 hPa | 0 mm | - | - | - |
| 1777805103 | 1.11° C | 87% | 1018.4 hPa | 0 mm | - | - | - |
| 1777804201 | 1.11° C | 88% | 1018.2 hPa | 0 mm | - | - | - |
| 1777803301 | 1.11° C | 89% | 1018 hPa | 0 mm | - | - | - |
| 1777802406 | 1.11° C | 89% | 1017.9 hPa | 0 mm | - | - | - |
| 1777801503 | 1.11° C | 89% | 1018 hPa | 0 mm | - | - | - |
| 1777798802 | 0.56° C | 90% | 1018 hPa | 0 mm | - | - | - |
| 1777796102 | 1.11° C | 90% | 1017.8 hPa | 0 mm | - | - | - |
| 1777795202 | 1.11° C | 90% | 1017.7 hPa | 0 mm | - | - | - |
| 1777792501 | 1.11° C | 90% | 1017.6 hPa | 0 mm | - | - | - |
| 1777791601 | 1.11° C | 90% | 1017.7 hPa | 0 mm | - | - | - |
| 1777788901 | 1.11° C | 89% | 1017.8 hPa | 0 mm | - | - | - |
| 1777788003 | 1.11° C | 88% | 1017.9 hPa | 0 mm | - | - | - |
| 1777784403 | 1.67° C | 86% | 1018 hPa | 0 mm | - | - | - |
| 1777780801 | 2.78° C | 81% | 1018 hPa | 0 mm | - | - | - |
| 1777777204 | 3.33° C | 79% | 1017.9 hPa | 0 mm | - | - | - |
| 1777776302 | 3.33° C | 77% | 1017.9 hPa | 0 mm | - | - | - |
| 1777773603 | 5° C | 69% | 1017.7 hPa | 0 mm | - | - | - |
| 1777770003 | 7.22° C | 61% | 1017.1 hPa | 0 mm | - | - | - |
| 1777766407 | 9.44° C | 53% | 1016.5 hPa | 0 mm | - | - | - |
| 1777762804 | 10.56° C | 49% | 1016.1 hPa | 0 mm | - | - | - |
| 1777759205 | 11.67° C | 43% | 1015.8 hPa | 0 mm | - | - | - |
| 1777755603 | 13.33° C | 38% | 1015.5 hPa | 0 mm | - | - | - |
| 1777752003 | 12.78° C | 40% | 1015.9 hPa | 0 mm | - | - | - |
| 1777748403 | 12.22° C | 44% | 1016.3 hPa | 0 mm | - | - | - |
* Rain latest hour (hover to see other rain measurements)
** Current wind speed in m/s (hover to see current wind gust speed)